KBPC

Pampa

Pampa, Texas, USA
METAR KBPC 161535Z AUTO 25005KT 10SM CLR 05/01 A3014 RMK AO2
Observed Flight Rules
Nov-16 @ 15:35 UTC (31 minutes ago) Visual Flight Rules
Wind Visibility Clouds
250° at 5 knots 10 miles
  • Clear skies
Temperatures Readings
Current 5°C / 41°F
Dewpoint 1°C / 34°F
Humidity 76%
Altimeter 30.14" Hg
Pressure 1021 hPa
Elevation 845
METAR KBPC 161535Z AUTO 25005KT 10SM CLR 05/01 A3014 RMK AO2
Observed Flight Rules
Nov-16 @ 15:35 UTC
(31 minutes ago)
VFR
Wind Visibility
250° at 5 knots 10 miles
Clouds
  • Clear skies
Temperature Dewpoint
5°C / 41°F 1°C / 34°F
Humidity Altimeter Pressure
76% 30.14" Hg 1021 hPa